createdAt,value
2022-08-21T00:02:16.421Z,19.60
2022-08-21T00:05:04.893Z,19.60
2022-08-21T00:07:54.294Z,19.60
2022-08-21T00:10:42.869Z,19.60
2022-08-21T00:13:31.027Z,19.60
2022-08-21T00:16:18.936Z,19.60
2022-08-21T00:19:07.846Z,19.60
2022-08-21T00:21:56.973Z,19.60
2022-08-21T00:24:46.449Z,19.50
2022-08-21T00:27:34.730Z,19.60
2022-08-21T00:30:25.846Z,19.50
2022-08-21T00:33:14.231Z,19.50
2022-08-21T00:36:03.506Z,19.50
2022-08-21T00:38:51.292Z,19.50
2022-08-21T00:41:41.741Z,19.40
2022-08-21T00:44:29.631Z,19.40
2022-08-21T00:47:17.971Z,19.30
2022-08-21T00:50:07.281Z,19.30
2022-08-21T00:52:55.116Z,19.20
2022-08-21T00:55:43.861Z,19.20
2022-08-21T00:58:36.893Z,19.10
2022-08-21T01:01:25.825Z,19.10
2022-08-21T01:04:14.581Z,19.10
2022-08-21T01:07:02.216Z,19.10
2022-08-21T01:09:50.802Z,19.10
2022-08-21T01:12:38.996Z,19.10
2022-08-21T01:15:32.911Z,19.10
2022-08-21T01:18:22.370Z,19.10
2022-08-21T01:21:14.742Z,19.10
2022-08-21T01:24:02.669Z,19.00
2022-08-21T01:26:52.131Z,19.00
2022-08-21T01:29:45.120Z,19.00
2022-08-21T01:32:33.018Z,19.10
2022-08-21T01:35:22.296Z,19.00
2022-08-21T01:38:11.568Z,19.10
2022-08-21T01:40:59.475Z,19.10
2022-08-21T01:43:47.891Z,19.00
2022-08-21T01:46:35.766Z,18.90
2022-08-21T01:49:23.821Z,18.90
2022-08-21T01:52:12.961Z,18.90
2022-08-21T01:55:02.251Z,18.80
2022-08-21T01:57:50.179Z,18.90
2022-08-21T02:00:38.588Z,18.80
2022-08-21T02:03:35.853Z,18.80
2022-08-21T02:06:24.293Z,18.80
2022-08-21T02:09:14.689Z,18.80
2022-08-21T02:12:05.093Z,18.90
2022-08-21T02:14:52.789Z,18.90
2022-08-21T02:17:43.737Z,18.80
2022-08-21T02:20:36.341Z,18.80
2022-08-21T02:23:26.870Z,18.80
2022-08-21T02:26:15.447Z,18.80
2022-08-21T02:29:06.212Z,18.80
2022-08-21T02:31:54.186Z,18.80
2022-08-21T02:34:41.686Z,18.80
2022-08-21T02:37:29.491Z,18.70
2022-08-21T02:40:19.719Z,18.70
2022-08-21T02:43:10.058Z,18.70
2022-08-21T02:46:01.077Z,18.70
2022-08-21T02:48:48.995Z,18.60
2022-08-21T02:51:37.053Z,18.60
2022-08-21T02:54:24.747Z,18.50
2022-08-21T02:57:12.729Z,18.50
2022-08-21T03:00:00.807Z,18.40
2022-08-21T03:02:50.450Z,18.40
2022-08-21T03:05:39.753Z,18.30
2022-08-21T03:08:27.997Z,18.30
2022-08-21T03:11:16.527Z,18.30
2022-08-21T03:14:06.351Z,18.30
2022-08-21T03:16:54.141Z,18.20
2022-08-21T03:19:43.552Z,18.20
2022-08-21T03:22:31.604Z,18.20
2022-08-21T03:25:19.983Z,18.20
2022-08-21T03:28:13.783Z,18.20
2022-08-21T03:31:01.664Z,18.10
2022-08-21T03:33:49.288Z,18.10
2022-08-21T03:36:38.596Z,18.10
2022-08-21T03:39:26.309Z,18.10
2022-08-21T03:42:14.432Z,18.10
2022-08-21T03:45:02.500Z,18.10
2022-08-21T03:47:55.283Z,18.00
2022-08-21T03:50:47.876Z,18.10
2022-08-21T03:53:37.944Z,18.00
2022-08-21T03:56:25.505Z,18.00
2022-08-21T03:59:13.574Z,18.00
2022-08-21T04:02:04.615Z,18.00
2022-08-21T04:04:52.868Z,18.00
2022-08-21T04:07:40.560Z,18.00
2022-08-21T04:10:31.624Z,18.00
2022-08-21T04:13:19.517Z,18.00
2022-08-21T04:16:08.371Z,18.00
2022-08-21T04:18:56.029Z,18.00
2022-08-21T04:21:44.505Z,18.00
2022-08-21T04:24:34.153Z,18.00
2022-08-21T04:27:23.283Z,18.00
2022-08-21T04:30:13.884Z,18.00
2022-08-21T04:33:01.747Z,18.00
2022-08-21T04:35:50.061Z,18.00
2022-08-21T04:38:37.951Z,17.90
2022-08-21T04:41:32.276Z,17.90
2022-08-21T04:44:21.393Z,17.90
2022-08-21T04:47:09.153Z,17.90
2022-08-21T04:49:56.903Z,18.00
2022-08-21T04:52:45.456Z,17.90
2022-08-21T04:55:33.480Z,17.90
2022-08-21T04:58:24.565Z,17.90
2022-08-21T05:01:22.736Z,18.00
2022-08-21T05:04:13.839Z,18.00
2022-08-21T05:07:05.410Z,18.00
2022-08-21T05:09:54.338Z,18.00
2022-08-21T05:12:43.662Z,17.90
2022-08-21T05:15:32.182Z,17.90
2022-08-21T05:18:21.629Z,17.90
2022-08-21T05:21:10.735Z,17.90
2022-08-21T05:23:58.518Z,17.90
2022-08-21T05:26:46.994Z,17.90
2022-08-21T05:29:35.658Z,18.00
2022-08-21T05:32:23.508Z,18.00
2022-08-21T05:35:12.988Z,18.00
2022-08-21T05:38:02.206Z,18.00
2022-08-21T05:40:50.462Z,17.90
2022-08-21T05:43:38.352Z,17.80
2022-08-21T05:46:26.408Z,17.80
2022-08-21T05:49:14.439Z,17.80
2022-08-21T05:52:04.674Z,17.80
2022-08-21T05:54:54.936Z,17.80
2022-08-21T05:57:43.347Z,17.80
2022-08-21T06:00:31.355Z,17.80
2022-08-21T06:03:21.732Z,17.80
2022-08-21T06:06:10.351Z,17.80
2022-08-21T06:08:59.676Z,17.80
2022-08-21T06:11:47.434Z,17.80
2022-08-21T06:14:35.398Z,17.80
2022-08-21T06:17:22.968Z,17.80
2022-08-21T06:20:12.057Z,17.80
2022-08-21T06:23:00.380Z,17.80
2022-08-21T06:25:49.844Z,17.80
2022-08-21T06:28:38.942Z,17.80
2022-08-21T06:31:28.969Z,17.80
2022-08-21T06:34:17.299Z,17.80
2022-08-21T06:37:05.901Z,17.80
2022-08-21T06:39:53.763Z,17.80
2022-08-21T06:42:43.064Z,17.80
2022-08-21T06:45:31.698Z,17.80
2022-08-21T06:48:20.383Z,17.80
2022-08-21T06:51:08.331Z,17.80
2022-08-21T06:53:56.485Z,17.80
2022-08-21T06:56:47.490Z,17.80
2022-08-21T06:59:36.786Z,17.60
2022-08-21T07:02:24.449Z,17.40
2022-08-21T07:05:18.187Z,17.20
2022-08-21T07:08:06.535Z,17.00
2022-08-21T07:10:55.777Z,16.90
2022-08-21T07:13:43.841Z,16.90
2022-08-21T07:16:33.114Z,16.90
2022-08-21T07:19:21.149Z,16.90
2022-08-21T07:22:08.916Z,16.90
2022-08-21T07:24:56.947Z,17.00
2022-08-21T07:27:44.570Z,17.00
2022-08-21T07:30:32.758Z,17.00
2022-08-21T07:33:22.093Z,17.00
2022-08-21T07:36:10.776Z,16.90
2022-08-21T07:38:58.830Z,16.80
2022-08-21T07:41:47.042Z,16.70
2022-08-21T07:44:35.438Z,16.50
2022-08-21T07:47:29.320Z,16.50
2022-08-21T07:50:31.084Z,16.40
2022-08-21T07:53:19.511Z,16.30
2022-08-21T07:56:09.436Z,16.20
2022-08-21T07:58:58.654Z,16.20
2022-08-21T08:01:46.602Z,16.10
2022-08-21T08:04:34.594Z,16.10
2022-08-21T08:07:23.912Z,16.10
2022-08-21T08:10:13.114Z,16.10
2022-08-21T08:13:01.136Z,16.10
2022-08-21T08:15:48.842Z,16.00
2022-08-21T08:18:36.847Z,16.00
2022-08-21T08:21:24.549Z,15.90
2022-08-21T08:24:19.116Z,15.90
2022-08-21T08:27:07.207Z,15.90
2022-08-21T08:29:54.923Z,15.90
2022-08-21T08:32:42.942Z,15.90
2022-08-21T08:35:30.528Z,15.90
2022-08-21T08:38:24.301Z,15.90
2022-08-21T08:41:17.868Z,15.90
2022-08-21T08:44:08.414Z,15.90
2022-08-21T08:46:58.115Z,15.90
2022-08-21T08:50:06.663Z,16.00
2022-08-21T08:53:00.438Z,16.00
2022-08-21T08:55:50.466Z,16.10
2022-08-21T08:58:44.597Z,16.20
2022-08-21T09:01:36.684Z,16.30
2022-08-21T09:04:30.023Z,16.40
2022-08-21T09:07:25.305Z,16.40
2022-08-21T09:10:18.728Z,16.50
2022-08-21T09:13:14.674Z,16.50
2022-08-21T09:16:13.979Z,16.50
2022-08-21T09:19:10.447Z,16.60
2022-08-21T09:22:05.645Z,16.60
2022-08-21T09:25:04.522Z,16.70
2022-08-21T09:27:52.758Z,16.70
2022-08-21T09:30:43.223Z,16.70
2022-08-21T09:33:32.996Z,16.70
2022-08-21T09:36:28.596Z,16.70
2022-08-21T09:39:30.741Z,16.80
2022-08-21T09:42:26.296Z,16.80
2022-08-21T09:45:18.001Z,16.90
2022-08-21T09:48:14.219Z,16.90
2022-08-21T09:51:12.999Z,17.00
2022-08-21T09:54:18.565Z,16.90
2022-08-21T09:57:35.727Z,16.90
2022-08-21T10:00:30.799Z,16.90
2022-08-21T10:03:21.013Z,16.90
2022-08-21T10:06:14.257Z,16.90
2022-08-21T10:09:18.859Z,16.90
2022-08-21T10:12:18.153Z,16.80
2022-08-21T10:15:15.167Z,16.70
2022-08-21T10:18:12.176Z,16.60
2022-08-21T10:21:11.370Z,16.60
2022-08-21T10:24:30.517Z,16.70
2022-08-21T10:27:27.612Z,16.70
2022-08-21T10:30:20.163Z,16.70
2022-08-21T10:33:22.460Z,16.80
2022-08-21T10:36:16.911Z,16.80
2022-08-21T10:39:26.725Z,16.90
2022-08-21T10:42:41.249Z,16.90
2022-08-21T10:45:45.259Z,16.90
2022-08-21T10:48:39.309Z,16.90
2022-08-21T10:51:36.269Z,16.90
2022-08-21T10:54:34.935Z,16.90
2022-08-21T10:57:32.406Z,16.90
2022-08-21T11:00:23.417Z,16.90
2022-08-21T11:03:15.689Z,16.90
2022-08-21T11:06:11.156Z,17.00
2022-08-21T11:09:06.076Z,17.00
2022-08-21T11:12:10.846Z,17.00
2022-08-21T11:15:02.900Z,17.00
2022-08-21T11:17:57.476Z,17.10
2022-08-21T11:20:51.161Z,17.10
2022-08-21T11:23:47.498Z,17.00
2022-08-21T11:26:43.539Z,16.90
2022-08-21T11:29:35.962Z,16.90
2022-08-21T11:32:59.273Z,16.90
2022-08-21T11:35:52.366Z,16.90
2022-08-21T11:38:44.243Z,16.90
2022-08-21T11:41:36.897Z,16.90
2022-08-21T11:44:35.579Z,16.90
2022-08-21T11:47:35.959Z,16.90
2022-08-21T11:50:35.605Z,17.00
2022-08-21T11:53:31.071Z,17.00
2022-08-21T11:56:23.407Z,17.00
2022-08-21T11:59:21.777Z,17.00
2022-08-21T12:02:16.377Z,17.00
2022-08-21T12:05:09.296Z,17.10
2022-08-21T12:08:08.004Z,17.00
2022-08-21T12:11:04.037Z,17.00
2022-08-21T12:13:57.962Z,17.00
2022-08-21T12:16:47.992Z,17.00
2022-08-21T12:19:36.187Z,17.10
2022-08-21T12:22:39.359Z,17.10
2022-08-21T12:25:41.897Z,17.20
2022-08-21T12:28:32.093Z,17.30
2022-08-21T12:31:25.370Z,17.30
2022-08-21T12:34:13.424Z,17.40
2022-08-21T12:37:04.828Z,17.40
2022-08-21T12:39:57.234Z,17.40
2022-08-21T12:42:58.550Z,17.30
2022-08-21T12:45:49.636Z,17.30
2022-08-21T12:48:46.325Z,17.20
2022-08-21T12:51:43.383Z,17.20
2022-08-21T12:54:34.345Z,17.10
2022-08-21T12:57:28.603Z,17.20
2022-08-21T13:00:23.839Z,17.10
2022-08-21T13:03:11.750Z,17.10
2022-08-21T13:06:00.864Z,17.10
2022-08-21T13:08:50.167Z,17.10
2022-08-21T13:11:38.274Z,17.20
2022-08-21T13:14:35.775Z,17.30
2022-08-21T13:17:37.305Z,17.30
2022-08-21T13:20:30.683Z,17.40
2022-08-21T13:23:32.172Z,17.50
2022-08-21T13:26:24.335Z,17.50
2022-08-21T13:29:14.638Z,17.50
2022-08-21T13:32:07.898Z,17.60
2022-08-21T13:34:55.695Z,17.60
2022-08-21T13:37:44.474Z,17.70
2022-08-21T13:40:34.429Z,17.70
2022-08-21T13:43:24.876Z,17.70
2022-08-21T13:46:15.772Z,17.60
2022-08-21T13:49:07.076Z,17.70
2022-08-21T13:51:55.776Z,17.70
2022-08-21T13:54:45.764Z,17.70
2022-08-21T13:57:36.015Z,17.70
2022-08-21T14:00:29.210Z,17.70
2022-08-21T14:03:30.327Z,17.60
2022-08-21T14:06:22.751Z,17.60
2022-08-21T14:09:12.730Z,17.60
2022-08-21T14:12:05.071Z,17.60
2022-08-21T14:14:55.386Z,17.60
2022-08-21T14:17:43.915Z,17.60
2022-08-21T14:20:34.884Z,17.50
2022-08-21T14:23:28.482Z,17.60
2022-08-21T14:26:20.978Z,17.60
2022-08-21T14:29:11.005Z,17.60
2022-08-21T14:32:00.640Z,17.60
2022-08-21T14:34:48.399Z,17.60
2022-08-21T14:37:37.379Z,17.60
2022-08-21T14:40:27.629Z,17.60
2022-08-21T14:43:15.629Z,17.60
2022-08-21T14:46:03.779Z,17.70
2022-08-21T14:48:51.997Z,17.70
2022-08-21T14:51:54.041Z,17.70
2022-08-21T14:54:42.110Z,17.70
2022-08-21T14:57:33.120Z,17.60
2022-08-21T15:00:26.949Z,17.70
2022-08-21T15:03:23.678Z,17.70
2022-08-21T15:06:12.368Z,17.70
2022-08-21T15:09:00.249Z,17.70
2022-08-21T15:11:48.092Z,17.60
2022-08-21T15:14:41.154Z,17.60
2022-08-21T15:17:29.632Z,17.60
2022-08-21T15:20:17.635Z,17.60
2022-08-21T15:23:08.241Z,17.70
2022-08-21T15:25:59.800Z,17.70
2022-08-21T15:28:48.212Z,17.70
2022-08-21T15:31:37.702Z,17.80
2022-08-21T15:34:28.258Z,17.80
2022-08-21T15:37:15.921Z,17.90
2022-08-21T15:40:03.780Z,17.90
2022-08-21T15:42:54.077Z,17.90
2022-08-21T15:45:41.975Z,17.90
2022-08-21T15:48:31.550Z,17.90
2022-08-21T15:51:19.593Z,17.90
2022-08-21T15:54:07.391Z,17.90
2022-08-21T15:56:58.640Z,17.90
2022-08-21T15:59:56.713Z,17.90
2022-08-21T16:02:48.496Z,17.90
2022-08-21T16:05:37.361Z,17.90
2022-08-21T16:08:26.095Z,17.80
2022-08-21T16:11:15.560Z,17.90
2022-08-21T16:14:03.523Z,17.90
2022-08-21T16:16:51.411Z,17.80
2022-08-21T16:19:39.684Z,17.80
2022-08-21T16:22:44.448Z,17.90
2022-08-21T16:25:35.119Z,17.80
2022-08-21T16:28:24.806Z,17.80
2022-08-21T16:31:12.914Z,17.80
2022-08-21T16:34:03.724Z,17.90
2022-08-21T16:36:51.871Z,17.90
2022-08-21T16:39:41.421Z,17.90
2022-08-21T16:42:29.462Z,17.80
2022-08-21T16:45:19.184Z,17.80
2022-08-21T16:48:09.814Z,17.80
2022-08-21T16:50:57.988Z,17.80
2022-08-21T16:53:47.044Z,17.80
2022-08-21T16:56:39.770Z,17.80
2022-08-21T16:59:28.922Z,17.80
2022-08-21T17:02:27.148Z,17.70
2022-08-21T17:05:15.496Z,17.70
2022-08-21T17:08:03.449Z,17.60
2022-08-21T17:10:52.321Z,17.60
2022-08-21T17:13:42.108Z,17.60
2022-08-21T17:16:30.298Z,17.50
2022-08-21T17:19:19.068Z,17.50
2022-08-21T17:22:08.752Z,17.50
2022-08-21T17:24:56.657Z,17.50
2022-08-21T17:27:45.105Z,17.40
2022-08-21T17:30:34.739Z,17.40
2022-08-21T17:33:23.173Z,17.40
2022-08-21T17:36:10.918Z,17.30
2022-08-21T17:38:59.526Z,17.30
2022-08-21T17:41:47.822Z,17.30
2022-08-21T17:44:41.537Z,17.20
2022-08-21T17:47:30.497Z,17.10
2022-08-21T17:50:22.835Z,17.10
2022-08-21T17:53:10.789Z,17.00
2022-08-21T17:55:58.832Z,17.00
2022-08-21T17:58:50.664Z,17.10
2022-08-21T18:01:42.879Z,17.10
2022-08-21T18:04:39.052Z,17.10
2022-08-21T18:07:32.041Z,17.10
2022-08-21T18:10:20.911Z,17.00
2022-08-21T18:13:11.985Z,17.00
2022-08-21T18:16:01.379Z,17.00
2022-08-21T18:18:52.989Z,17.00
2022-08-21T18:21:42.665Z,16.90
2022-08-21T18:24:30.692Z,16.90
2022-08-21T18:27:19.596Z,16.80
2022-08-21T18:30:08.053Z,16.90
2022-08-21T18:32:56.652Z,16.80
2022-08-21T18:35:44.680Z,16.80
2022-08-21T18:38:35.749Z,16.80
2022-08-21T18:41:23.886Z,16.80
2022-08-21T18:44:13.992Z,16.80
2022-08-21T18:47:03.635Z,16.80
2022-08-21T18:49:51.673Z,16.70
2022-08-21T18:52:52.781Z,16.70
2022-08-21T18:55:45.413Z,16.70
2022-08-21T18:58:33.524Z,16.70
2022-08-21T19:01:22.016Z,16.70
2022-08-21T19:04:25.245Z,16.70
2022-08-21T19:07:21.813Z,16.70
2022-08-21T19:10:28.293Z,16.60
2022-08-21T19:13:22.044Z,16.50
2022-08-21T19:16:11.117Z,16.50
2022-08-21T19:19:00.927Z,16.50
2022-08-21T19:21:49.566Z,16.50
2022-08-21T19:24:37.426Z,16.50
2022-08-21T19:27:25.745Z,16.50
2022-08-21T19:30:15.450Z,16.50
2022-08-21T19:33:03.488Z,16.50
2022-08-21T19:35:52.686Z,16.50
2022-08-21T19:38:41.259Z,16.40
2022-08-21T19:41:33.762Z,16.40
2022-08-21T19:44:26.801Z,16.40
2022-08-21T19:47:19.166Z,16.40
2022-08-21T19:50:17.410Z,16.40
2022-08-21T19:53:11.983Z,16.30
2022-08-21T19:56:00.363Z,16.30
2022-08-21T19:58:49.941Z,16.30
2022-08-21T20:01:39.959Z,16.30
2022-08-21T20:04:29.458Z,16.30
2022-08-21T20:07:18.126Z,16.20
2022-08-21T20:10:15.043Z,16.30
2022-08-21T20:13:02.981Z,16.20
2022-08-21T20:15:50.989Z,16.20
2022-08-21T20:18:41.481Z,16.20
2022-08-21T20:21:31.234Z,16.20
2022-08-21T20:24:31.309Z,16.20
2022-08-21T20:27:24.942Z,16.20
2022-08-21T20:30:13.971Z,16.20
2022-08-21T20:33:01.806Z,16.20
2022-08-21T20:35:51.324Z,16.20
2022-08-21T20:38:40.739Z,16.20
2022-08-21T20:41:30.575Z,16.20
2022-08-21T20:44:18.674Z,16.20
2022-08-21T20:50:21.422Z,16.20
2022-08-21T20:53:15.678Z,16.30
2022-08-21T20:56:12.769Z,16.30
2022-08-21T20:59:10.182Z,16.20
2022-08-21T21:02:17.880Z,16.30
2022-08-21T21:05:19.440Z,16.30
2022-08-21T21:08:13.402Z,16.30
2022-08-21T21:11:06.060Z,16.30
2022-08-21T21:13:58.412Z,16.30
2022-08-21T21:16:51.000Z,16.30
2022-08-21T21:19:47.773Z,16.30
2022-08-21T21:22:41.400Z,16.30
2022-08-21T21:25:39.797Z,16.30
2022-08-21T21:28:39.594Z,16.20
2022-08-21T21:31:31.184Z,16.20
2022-08-21T21:34:20.699Z,16.30
2022-08-21T21:37:14.246Z,16.30
2022-08-21T21:40:35.149Z,16.30
2022-08-21T21:43:40.678Z,16.30
2022-08-21T21:46:36.108Z,16.20
2022-08-21T21:49:36.987Z,16.20
2022-08-21T21:52:45.034Z,16.30
2022-08-21T21:55:45.514Z,16.20
2022-08-21T21:59:19.038Z,16.30
2022-08-21T22:02:13.538Z,16.20
2022-08-21T22:05:07.398Z,16.20
2022-08-21T22:08:01.926Z,16.20
2022-08-21T22:11:00.387Z,16.20
2022-08-21T22:14:05.040Z,16.10
2022-08-21T22:16:52.890Z,16.10
2022-08-21T22:19:43.108Z,16.10
2022-08-21T22:22:36.273Z,16.10
2022-08-21T22:25:28.075Z,16.00
2022-08-21T22:28:17.770Z,16.00
2022-08-21T22:31:22.783Z,16.00
2022-08-21T22:37:20.760Z,15.90
2022-08-21T22:40:10.726Z,15.90
2022-08-21T22:43:02.537Z,15.80
2022-08-21T22:46:00.687Z,15.80
2022-08-21T22:48:55.870Z,15.70
2022-08-21T22:51:46.739Z,15.70
2022-08-21T22:54:37.742Z,15.60
2022-08-21T22:57:29.103Z,15.60
2022-08-21T23:00:35.759Z,15.60
2022-08-21T23:03:31.800Z,15.60
2022-08-21T23:06:28.907Z,15.60
2022-08-21T23:09:23.638Z,15.60
2022-08-21T23:12:33.061Z,15.60
2022-08-21T23:15:23.088Z,15.60
2022-08-21T23:18:19.351Z,15.60
2022-08-21T23:21:20.898Z,15.60
2022-08-21T23:24:35.041Z,15.60
2022-08-21T23:27:38.742Z,15.60
2022-08-21T23:30:39.737Z,15.60
2022-08-21T23:33:43.047Z,15.60
2022-08-21T23:37:01.223Z,15.60
2022-08-21T23:39:59.676Z,15.60
2022-08-21T23:43:04.238Z,15.60
2022-08-21T23:46:20.939Z,15.60
2022-08-21T23:49:31.717Z,15.60
2022-08-21T23:52:31.445Z,15.60
2022-08-21T23:55:32.546Z,15.60
2022-08-21T23:58:33.800Z,15.60
